sensor_id;sensor_type;location;lat;lon;timestamp;pressure;altitude;pressure_sealevel;temperature;humidity
76864;BME280;65834;52.364;9.754;2023-12-14T00:01:39;100097.63;;;6.64;86.28
76864;BME280;65834;52.364;9.754;2023-12-14T00:04:09;100104.84;;;6.63;86.05
76864;BME280;65834;52.364;9.754;2023-12-14T00:06:39;100124.69;;;6.54;85.94
76864;BME280;65834;52.364;9.754;2023-12-14T00:09:08;100115.97;;;6.52;86.61
76864;BME280;65834;52.364;9.754;2023-12-14T00:11:38;100119.13;;;6.55;86.59
76864;BME280;65834;52.364;9.754;2023-12-14T00:14:08;100133.19;;;6.66;85.61
76864;BME280;65834;52.364;9.754;2023-12-14T00:16:40;100132.09;;;6.52;86.16
76864;BME280;65834;52.364;9.754;2023-12-14T00:19:10;100142.16;;;6.50;86.70
76864;BME280;65834;52.364;9.754;2023-12-14T00:21:39;100142.84;;;6.52;86.37
76864;BME280;65834;52.364;9.754;2023-12-14T00:24:09;100149.22;;;6.43;86.16
76864;BME280;65834;52.364;9.754;2023-12-14T00:26:38;100148.41;;;6.34;86.62
76864;BME280;65834;52.364;9.754;2023-12-14T00:29:08;100146.56;;;6.35;86.50
76864;BME280;65834;52.364;9.754;2023-12-14T00:31:40;100154.78;;;6.41;86.23
76864;BME280;65834;52.364;9.754;2023-12-14T00:34:10;100156.81;;;6.39;85.85
76864;BME280;65834;52.364;9.754;2023-12-14T00:36:39;100160.84;;;6.35;85.71
76864;BME280;65834;52.364;9.754;2023-12-14T00:39:09;100166.41;;;6.26;86.07
76864;BME280;65834;52.364;9.754;2023-12-14T00:41:39;100172.31;;;6.21;85.98
76864;BME280;65834;52.364;9.754;2023-12-14T00:44:09;100163.75;;;6.18;86.35
76864;BME280;65834;52.364;9.754;2023-12-14T00:46:41;100175.97;;;6.20;86.08
76864;BME280;65834;52.364;9.754;2023-12-14T00:49:11;100184.88;;;6.21;85.77
76864;BME280;65834;52.364;9.754;2023-12-14T00:51:40;100183.03;;;6.13;85.86
76864;BME280;65834;52.364;9.754;2023-12-14T00:54:10;100194.28;;;6.17;86.12
76864;BME280;65834;52.364;9.754;2023-12-14T00:56:40;100204.88;;;6.18;86.24
76864;BME280;65834;52.364;9.754;2023-12-14T00:59:09;100212.91;;;6.18;86.12
76864;BME280;65834;52.364;9.754;2023-12-14T01:01:42;100220.63;;;6.21;85.96
76864;BME280;65834;52.364;9.754;2023-12-14T01:04:11;100217.94;;;6.21;85.64
76864;BME280;65834;52.364;9.754;2023-12-14T01:06:41;100219.94;;;6.19;85.58
76864;BME280;65834;52.364;9.754;2023-12-14T01:09:10;100233.03;;;6.14;85.00
76864;BME280;65834;52.364;9.754;2023-12-14T01:11:40;100232.19;;;6.14;85.51
76864;BME280;65834;52.364;9.754;2023-12-14T01:14:09;100238.91;;;6.10;85.58
76864;BME280;65834;52.364;9.754;2023-12-14T01:16:42;100249.50;;;6.11;85.74
76864;BME280;65834;52.364;9.754;2023-12-14T01:19:11;100242.78;;;6.15;85.44
76864;BME280;65834;52.364;9.754;2023-12-14T01:21:41;100243.28;;;6.11;85.67
76864;BME280;65834;52.364;9.754;2023-12-14T01:24:10;100246.81;;;6.11;85.77
76864;BME280;65834;52.364;9.754;2023-12-14T01:26:41;100248.97;;;6.32;85.66
76864;BME280;65834;52.364;9.754;2023-12-14T01:29:10;100250.31;;;6.20;85.45
76864;BME280;65834;52.364;9.754;2023-12-14T01:31:42;100261.22;;;6.10;85.79
76864;BME280;65834;52.364;9.754;2023-12-14T01:34:12;100262.41;;;6.08;86.14
76864;BME280;65834;52.364;9.754;2023-12-14T01:36:42;100261.56;;;6.07;86.34
76864;BME280;65834;52.364;9.754;2023-12-14T01:39:11;100270.63;;;6.06;86.54
76864;BME280;65834;52.364;9.754;2023-12-14T01:41:41;100279.34;;;6.00;86.81
76864;BME280;65834;52.364;9.754;2023-12-14T01:44:10;100278.53;;;5.99;87.13
76864;BME280;65834;52.364;9.754;2023-12-14T01:46:43;100280.84;;;5.94;87.33
76864;BME280;65834;52.364;9.754;2023-12-14T01:49:12;100293.28;;;5.95;87.42
76864;BME280;65834;52.364;9.754;2023-12-14T01:51:42;100301.50;;;6.02;87.08
76864;BME280;65834;52.364;9.754;2023-12-14T01:54:11;100308.38;;;6.05;86.99
76864;BME280;65834;52.364;9.754;2023-12-14T01:56:41;100308.88;;;6.16;86.18
76864;BME280;65834;52.364;9.754;2023-12-14T01:59:10;100315.28;;;6.23;85.61
76864;BME280;65834;52.364;9.754;2023-12-14T02:01:44;100309.41;;;6.12;85.06
76864;BME280;65834;52.364;9.754;2023-12-14T02:04:14;100309.56;;;6.02;85.61
76864;BME280;65834;52.364;9.754;2023-12-14T02:06:43;100320.44;;;6.00;85.86
76864;BME280;65834;52.364;9.754;2023-12-14T02:09:13;100307.38;;;6.14;85.63
76864;BME280;65834;52.364;9.754;2023-12-14T02:11:42;100320.81;;;6.14;84.66
76864;BME280;65834;52.364;9.754;2023-12-14T02:14:12;100322.66;;;6.05;85.00
76864;BME280;65834;52.364;9.754;2023-12-14T02:16:44;100325.81;;;6.00;84.74
76864;BME280;65834;52.364;9.754;2023-12-14T02:19:14;100323.28;;;5.91;85.08
76864;BME280;65834;52.364;9.754;2023-12-14T02:21:44;100323.09;;;5.84;85.75
76864;BME280;65834;52.364;9.754;2023-12-14T02:24:16;100333.78;;;5.76;86.19
76864;BME280;65834;52.364;9.754;2023-12-14T02:26:45;100341.84;;;5.76;86.55
76864;BME280;65834;52.364;9.754;2023-12-14T02:29:29;100341.38;;;5.81;86.23
76864;BME280;65834;52.364;9.754;2023-12-14T02:31:58;100343.59;;;5.93;85.32
76864;BME280;65834;52.364;9.754;2023-12-14T02:34:29;100341.59;;;5.95;84.61
76864;BME280;65834;52.364;9.754;2023-12-14T02:36:59;100355.00;;;5.87;84.77
76864;BME280;65834;52.364;9.754;2023-12-14T02:39:31;100357.94;;;5.76;84.97
76864;BME280;65834;52.364;9.754;2023-12-14T02:42:02;100359.44;;;5.79;85.34
76864;BME280;65834;52.364;9.754;2023-12-14T02:44:32;100364.66;;;5.80;85.32
76864;BME280;65834;52.364;9.754;2023-12-14T02:47:01;100369.66;;;5.75;85.40
76864;BME280;65834;52.364;9.754;2023-12-14T02:49:31;100353.03;;;5.64;85.71
76864;BME280;65834;52.364;9.754;2023-12-14T02:52:00;100381.56;;;5.73;85.56
76864;BME280;65834;52.364;9.754;2023-12-14T02:54:33;100383.78;;;5.77;85.84
76864;BME280;65834;52.364;9.754;2023-12-14T02:57:03;100382.59;;;5.72;85.98
76864;BME280;65834;52.364;9.754;2023-12-14T02:59:32;100387.59;;;5.67;85.96
76864;BME280;65834;52.364;9.754;2023-12-14T03:02:02;100389.28;;;5.76;86.26
76864;BME280;65834;52.364;9.754;2023-12-14T03:04:32;100390.13;;;5.76;86.05
76864;BME280;65834;52.364;9.754;2023-12-14T03:07:02;100387.63;;;5.75;86.14
76864;BME280;65834;52.364;9.754;2023-12-14T03:09:34;100385.94;;;5.74;85.88
76864;BME280;65834;52.364;9.754;2023-12-14T03:12:04;100375.69;;;5.69;86.25
76864;BME280;65834;52.364;9.754;2023-12-14T03:14:34;100391.78;;;5.69;86.40
76864;BME280;65834;52.364;9.754;2023-12-14T03:17:04;100400.34;;;5.73;86.30
76864;BME280;65834;52.364;9.754;2023-12-14T03:19:33;100401.19;;;5.73;86.26
76864;BME280;65834;52.364;9.754;2023-12-14T03:22:03;100402.91;;;5.82;85.59
76864;BME280;65834;52.364;9.754;2023-12-14T03:24:35;100406.75;;;5.80;85.15
76864;BME280;65834;52.364;9.754;2023-12-14T03:27:05;100406.41;;;5.75;85.45
76864;BME280;65834;52.364;9.754;2023-12-14T03:29:34;100401.25;;;5.81;85.46
76864;BME280;65834;52.364;9.754;2023-12-14T03:32:04;100406.00;;;5.87;84.43
76864;BME280;65834;52.364;9.754;2023-12-14T03:34:34;100409.09;;;5.75;84.58
76864;BME280;65834;52.364;9.754;2023-12-14T03:37:04;100421.81;;;5.73;84.93
76864;BME280;65834;52.364;9.754;2023-12-14T03:39:36;100428.56;;;5.77;84.33
76864;BME280;65834;52.364;9.754;2023-12-14T03:42:05;100422.53;;;5.75;84.35
76864;BME280;65834;52.364;9.754;2023-12-14T03:44:35;100421.34;;;5.77;84.19
76864;BME280;65834;52.364;9.754;2023-12-14T03:47:04;100424.50;;;5.73;84.21
76864;BME280;65834;52.364;9.754;2023-12-14T03:49:36;100420.47;;;5.69;84.03
76864;BME280;65834;52.364;9.754;2023-12-14T03:52:06;100421.94;;;5.63;84.27
76864;BME280;65834;52.364;9.754;2023-12-14T03:54:38;100424.63;;;5.63;84.48
76864;BME280;65834;52.364;9.754;2023-12-14T03:57:08;100437.38;;;5.61;84.64
76864;BME280;65834;52.364;9.754;2023-12-14T03:59:39;100444.94;;;5.66;84.51
76864;BME280;65834;52.364;9.754;2023-12-14T04:02:08;100451.97;;;5.67;84.36
76864;BME280;65834;52.364;9.754;2023-12-14T04:04:39;100451.34;;;5.73;84.02
76864;BME280;65834;52.364;9.754;2023-12-14T04:07:09;100461.41;;;5.71;83.13
76864;BME280;65834;52.364;9.754;2023-12-14T04:09:41;100465.59;;;5.73;83.83
76864;BME280;65834;52.364;9.754;2023-12-14T04:12:11;100461.91;;;5.74;83.68
76864;BME280;65834;52.364;9.754;2023-12-14T04:14:40;100474.63;;;5.72;83.45
76864;BME280;65834;52.364;9.754;2023-12-14T04:17:11;100475.16;;;5.76;83.07
76864;BME280;65834;52.364;9.754;2023-12-14T04:19:41;100482.38;;;5.75;82.34
76864;BME280;65834;52.364;9.754;2023-12-14T04:22:11;100487.88;;;5.66;82.86
76864;BME280;65834;52.364;9.754;2023-12-14T04:24:43;100494.38;;;5.63;83.15
76864;BME280;65834;52.364;9.754;2023-12-14T04:27:12;100501.59;;;5.63;82.88
76864;BME280;65834;52.364;9.754;2023-12-14T04:29:42;100500.75;;;5.62;83.12
76864;BME280;65834;52.364;9.754;2023-12-14T04:32:11;100500.22;;;5.59;82.93
76864;BME280;65834;52.364;9.754;2023-12-14T04:34:41;100501.59;;;5.63;83.29
76864;BME280;65834;52.364;9.754;2023-12-14T04:37:11;100506.47;;;5.67;83.33
76864;BME280;65834;52.364;9.754;2023-12-14T04:39:43;100507.47;;;5.66;83.06
76864;BME280;65834;52.364;9.754;2023-12-14T04:42:12;100511.84;;;5.67;82.79
76864;BME280;65834;52.364;9.754;2023-12-14T04:44:42;100518.03;;;5.60;83.32
76864;BME280;65834;52.364;9.754;2023-12-14T04:47:11;100524.72;;;5.64;83.41
76864;BME280;65834;52.364;9.754;2023-12-14T04:49:41;100520.53;;;5.61;83.66
76864;BME280;65834;52.364;9.754;2023-12-14T04:52:11;100535.69;;;5.70;83.00
76864;BME280;65834;52.364;9.754;2023-12-14T04:54:43;100530.00;;;5.73;82.48
76864;BME280;65834;52.364;9.754;2023-12-14T04:57:12;100536.34;;;5.72;82.37
76864;BME280;65834;52.364;9.754;2023-12-14T04:59:42;100541.03;;;5.70;82.44
76864;BME280;65834;52.364;9.754;2023-12-14T05:02:11;100548.53;;;5.59;82.65
76864;BME280;65834;52.364;9.754;2023-12-14T05:04:41;100538.84;;;5.66;82.91
76864;BME280;65834;52.364;9.754;2023-12-14T05:07:10;100543.19;;;5.67;82.63
76864;BME280;65834;52.364;9.754;2023-12-14T05:09:42;100554.03;;;5.57;83.06
76864;BME280;65834;52.364;9.754;2023-12-14T05:12:12;100558.41;;;5.58;82.93
76864;BME280;65834;52.364;9.754;2023-12-14T05:14:41;100555.91;;;5.57;83.04
76864;BME280;65834;52.364;9.754;2023-12-14T05:17:11;100556.22;;;5.54;83.77
76864;BME280;65834;52.364;9.754;2023-12-14T05:19:41;100568.38;;;5.48;83.88
76864;BME280;65834;52.364;9.754;2023-12-14T05:22:11;100569.41;;;5.47;84.56
76864;BME280;65834;52.364;9.754;2023-12-14T05:24:46;100571.81;;;5.58;84.20
76864;BME280;65834;52.364;9.754;2023-12-14T05:27:16;100581.03;;;5.56;83.45
76864;BME280;65834;52.364;9.754;2023-12-14T05:29:46;100583.72;;;5.56;83.12
76864;BME280;65834;52.364;9.754;2023-12-14T05:32:15;100587.28;;;5.64;82.92
76864;BME280;65834;52.364;9.754;2023-12-14T05:34:45;100581.88;;;5.56;82.56
76864;BME280;65834;52.364;9.754;2023-12-14T05:37:14;100586.22;;;5.57;82.88
76864;BME280;65834;52.364;9.754;2023-12-14T05:39:46;100584.47;;;5.48;83.19
76864;BME280;65834;52.364;9.754;2023-12-14T05:42:16;100596.28;;;5.55;83.06
76864;BME280;65834;52.364;9.754;2023-12-14T05:44:46;100601.94;;;5.52;82.88
76864;BME280;65834;52.364;9.754;2023-12-14T05:47:15;100600.44;;;5.50;83.07
76864;BME280;65834;52.364;9.754;2023-12-14T05:49:45;100605.09;;;5.47;83.22
76864;BME280;65834;52.364;9.754;2023-12-14T05:52:15;100619.19;;;5.50;83.03
76864;BME280;65834;52.364;9.754;2023-12-14T05:54:47;100618.41;;;5.57;83.08
76864;BME280;65834;52.364;9.754;2023-12-14T05:57:16;100625.03;;;5.63;81.86
76864;BME280;65834;52.364;9.754;2023-12-14T05:59:46;100629.75;;;5.69;81.44
76864;BME280;65834;52.364;9.754;2023-12-14T06:02:16;100635.44;;;5.66;81.84
76864;BME280;65834;52.364;9.754;2023-12-14T06:04:46;100633.56;;;5.66;80.88
76864;BME280;65834;52.364;9.754;2023-12-14T06:07:15;100636.19;;;5.58;81.39
76864;BME280;65834;52.364;9.754;2023-12-14T06:09:47;100629.00;;;5.59;81.38
76864;BME280;65834;52.364;9.754;2023-12-14T06:12:17;100645.25;;;5.57;81.46
76864;BME280;65834;52.364;9.754;2023-12-14T06:14:46;100635.88;;;5.61;82.03
76864;BME280;65834;52.364;9.754;2023-12-14T06:17:16;100634.06;;;5.62;81.45
76864;BME280;65834;52.364;9.754;2023-12-14T06:19:46;100642.94;;;5.62;81.21
76864;BME280;65834;52.364;9.754;2023-12-14T06:22:16;100652.16;;;5.60;81.13
76864;BME280;65834;52.364;9.754;2023-12-14T06:24:48;100650.47;;;5.59;81.17
76864;BME280;65834;52.364;9.754;2023-12-14T06:27:17;100661.25;;;5.67;80.59
76864;BME280;65834;52.364;9.754;2023-12-14T06:29:49;100668.44;;;5.66;80.64
76864;BME280;65834;52.364;9.754;2023-12-14T06:32:19;100666.09;;;5.63;80.99
76864;BME280;65834;52.364;9.754;2023-12-14T06:34:48;100664.94;;;5.66;81.05
76864;BME280;65834;52.364;9.754;2023-12-14T06:37:19;100666.63;;;5.67;80.38
76864;BME280;65834;52.364;9.754;2023-12-14T06:39:51;100678.06;;;5.69;80.13
76864;BME280;65834;52.364;9.754;2023-12-14T06:42:20;100674.75;;;5.57;80.72
76864;BME280;65834;52.364;9.754;2023-12-14T06:44:50;100678.75;;;5.53;81.16
76864;BME280;65834;52.364;9.754;2023-12-14T06:47:19;100682.59;;;5.51;81.50
76864;BME280;65834;52.364;9.754;2023-12-14T06:49:49;100683.59;;;5.50;81.88
76864;BME280;65834;52.364;9.754;2023-12-14T06:52:19;100694.25;;;5.59;81.57
76864;BME280;65834;52.364;9.754;2023-12-14T06:54:51;100693.38;;;5.59;81.35
76864;BME280;65834;52.364;9.754;2023-12-14T06:57:21;100691.69;;;5.58;81.21
76864;BME280;65834;52.364;9.754;2023-12-14T06:59:53;100706.94;;;5.57;80.89
76864;BME280;65834;52.364;9.754;2023-12-14T07:02:22;100710.72;;;5.64;80.99
76864;BME280;65834;52.364;9.754;2023-12-14T07:04:52;100713.31;;;5.56;81.15
76864;BME280;65834;52.364;9.754;2023-12-14T07:07:22;100721.38;;;5.56;81.07
76864;BME280;65834;52.364;9.754;2023-12-14T07:09:54;100723.34;;;5.54;81.43
76864;BME280;65834;52.364;9.754;2023-12-14T07:12:23;100725.66;;;5.49;81.41
76864;BME280;65834;52.364;9.754;2023-12-14T07:14:53;100728.72;;;5.54;81.70
76864;BME280;65834;52.364;9.754;2023-12-14T07:17:22;100732.78;;;5.58;81.58
76864;BME280;65834;52.364;9.754;2023-12-14T07:19:52;100738.75;;;5.52;81.74
76864;BME280;65834;52.364;9.754;2023-12-14T07:22:26;100740.59;;;5.52;81.45
76864;BME280;65834;52.364;9.754;2023-12-14T07:24:58;100743.59;;;5.48;82.25
76864;BME280;65834;52.364;9.754;2023-12-14T07:27:27;100751.94;;;5.45;82.65
76864;BME280;65834;52.364;9.754;2023-12-14T07:29:57;100752.91;;;5.44;83.05
76864;BME280;65834;52.364;9.754;2023-12-14T07:32:28;100766.13;;;5.56;82.04
76864;BME280;65834;52.364;9.754;2023-12-14T07:34:58;100771.78;;;5.53;82.21
76864;BME280;65834;52.364;9.754;2023-12-14T07:37:37;100780.44;;;5.46;82.65
76864;BME280;65834;52.364;9.754;2023-12-14T07:40:10;100781.06;;;5.58;82.49
76864;BME280;65834;52.364;9.754;2023-12-14T07:42:39;100786.31;;;5.60;81.26
76864;BME280;65834;52.364;9.754;2023-12-14T07:45:09;100796.94;;;5.69;81.36
76864;BME280;65834;52.364;9.754;2023-12-14T07:47:39;100804.84;;;5.71;80.65
76864;BME280;65834;52.364;9.754;2023-12-14T07:50:09;100811.97;;;5.62;81.46
76864;BME280;65834;52.364;9.754;2023-12-14T07:52:39;100813.34;;;5.66;81.40
76864;BME280;65834;52.364;9.754;2023-12-14T07:55:11;100817.66;;;5.59;81.65
76864;BME280;65834;52.364;9.754;2023-12-14T07:57:41;100814.72;;;5.53;81.84
76864;BME280;65834;52.364;9.754;2023-12-14T08:00:12;100824.53;;;5.62;81.58
76864;BME280;65834;52.364;9.754;2023-12-14T08:02:43;100831.16;;;5.67;81.69
76864;BME280;65834;52.364;9.754;2023-12-14T08:05:13;100834.81;;;5.66;81.07
76864;BME280;65834;52.364;9.754;2023-12-14T08:07:42;100841.88;;;5.67;81.58
76864;BME280;65834;52.364;9.754;2023-12-14T08:10:15;100852.81;;;5.83;81.48
76864;BME280;65834;52.364;9.754;2023-12-14T08:12:44;100848.09;;;5.95;81.24
76864;BME280;65834;52.364;9.754;2023-12-14T08:15:14;100851.00;;;6.19;83.55
76864;BME280;65834;52.364;9.754;2023-12-14T08:17:43;100852.41;;;6.06;81.68
76864;BME280;65834;52.364;9.754;2023-12-14T08:20:13;100851.09;;;5.82;82.33
76864;BME280;65834;52.364;9.754;2023-12-14T08:22:43;100862.13;;;5.62;82.85
76864;BME280;65834;52.364;9.754;2023-12-14T08:25:16;100872.75;;;5.54;83.72
76864;BME280;65834;52.364;9.754;2023-12-14T08:27:45;100869.59;;;5.58;84.12
76864;BME280;65834;52.364;9.754;2023-12-14T08:30:15;100882.09;;;5.50;84.63
76864;BME280;65834;52.364;9.754;2023-12-14T08:32:45;100891.28;;;5.47;85.00
76864;BME280;65834;52.364;9.754;2023-12-14T08:35:15;100894.09;;;5.45;85.43
76864;BME280;65834;52.364;9.754;2023-12-14T08:37:44;100900.31;;;5.46;85.37
76864;BME280;65834;52.364;9.754;2023-12-14T08:40:17;100904.13;;;5.43;85.68
76864;BME280;65834;52.364;9.754;2023-12-14T08:42:46;100902.44;;;5.42;85.74
76864;BME280;65834;52.364;9.754;2023-12-14T08:45:16;100902.44;;;5.42;85.95
76864;BME280;65834;52.364;9.754;2023-12-14T08:47:46;100907.75;;;5.52;85.20
76864;BME280;65834;52.364;9.754;2023-12-14T08:50:16;100920.19;;;5.53;85.42
76864;BME280;65834;52.364;9.754;2023-12-14T08:52:45;100925.09;;;5.58;85.46
76864;BME280;65834;52.364;9.754;2023-12-14T08:55:19;100926.75;;;5.68;84.35
76864;BME280;65834;52.364;9.754;2023-12-14T08:57:48;100939.75;;;5.63;83.65
76864;BME280;65834;52.364;9.754;2023-12-14T09:00:18;100934.94;;;5.67;83.36
76864;BME280;65834;52.364;9.754;2023-12-14T09:02:48;100946.41;;;5.69;83.32
76864;BME280;65834;52.364;9.754;2023-12-14T09:05:18;100947.75;;;5.73;82.75
76864;BME280;65834;52.364;9.754;2023-12-14T09:07:48;100953.84;;;5.75;82.74
76864;BME280;65834;52.364;9.754;2023-12-14T09:10:24;100960.16;;;5.83;82.41
76864;BME280;65834;52.364;9.754;2023-12-14T09:12:54;100955.38;;;5.87;81.74
76864;BME280;65834;52.364;9.754;2023-12-14T09:15:23;100963.56;;;5.85;81.80
76864;BME280;65834;52.364;9.754;2023-12-14T09:17:53;100964.41;;;5.76;81.56
76864;BME280;65834;52.364;9.754;2023-12-14T09:20:23;100979.84;;;5.74;81.37
76864;BME280;65834;52.364;9.754;2023-12-14T09:22:52;100973.22;;;5.69;81.88
76864;BME280;65834;52.364;9.754;2023-12-14T09:25:24;100975.75;;;5.70;81.79
76864;BME280;65834;52.364;9.754;2023-12-14T09:27:54;100983.38;;;5.75;81.78
76864;BME280;65834;52.364;9.754;2023-12-14T09:30:23;100980.09;;;5.81;81.36
76864;BME280;65834;52.364;9.754;2023-12-14T09:32:53;100983.38;;;5.75;80.94
76864;BME280;65834;52.364;9.754;2023-12-14T09:35:23;100970.84;;;5.66;80.44
76864;BME280;65834;52.364;9.754;2023-12-14T09:37:53;100983.66;;;5.72;80.31
76864;BME280;65834;52.364;9.754;2023-12-14T09:40:26;100992.44;;;5.64;81.13
76864;BME280;65834;52.364;9.754;2023-12-14T09:42:56;100992.31;;;5.66;81.61
76864;BME280;65834;52.364;9.754;2023-12-14T09:45:28;100990.69;;;5.73;81.89
76864;BME280;65834;52.364;9.754;2023-12-14T09:47:59;100998.91;;;5.71;81.93
76864;BME280;65834;52.364;9.754;2023-12-14T09:50:33;101001.41;;;5.82;80.18
76864;BME280;65834;52.364;9.754;2023-12-14T09:53:03;101008.22;;;5.86;79.86
76864;BME280;65834;52.364;9.754;2023-12-14T09:55:37;101004.53;;;5.87;80.15
76864;BME280;65834;52.364;9.754;2023-12-14T09:58:06;101016.81;;;5.90;80.08
76864;BME280;65834;52.364;9.754;2023-12-14T10:00:39;101023.59;;;5.84;79.98
76864;BME280;65834;52.364;9.754;2023-12-14T10:03:20;101026.41;;;5.83;80.58
76864;BME280;65834;52.364;9.754;2023-12-14T10:05:51;101027.84;;;5.77;81.28
76864;BME280;65834;52.364;9.754;2023-12-14T10:08:22;101037.44;;;5.80;80.91
76864;BME280;65834;52.364;9.754;2023-12-14T10:10:55;101035.06;;;5.77;80.84
76864;BME280;65834;52.364;9.754;2023-12-14T10:13:38;101032.19;;;5.78;80.93
76864;BME280;65834;52.364;9.754;2023-12-14T10:16:10;101039.28;;;5.79;80.58
76864;BME280;65834;52.364;9.754;2023-12-14T10:18:41;101032.75;;;5.82;80.31
76864;BME280;65834;52.364;9.754;2023-12-14T10:21:11;101032.38;;;5.86;79.59
76864;BME280;65834;52.364;9.754;2023-12-14T10:23:41;101036.59;;;5.89;80.06
76864;BME280;65834;52.364;9.754;2023-12-14T10:26:15;101048.00;;;5.91;79.56
76864;BME280;65834;52.364;9.754;2023-12-14T10:28:45;101048.72;;;5.93;79.56
76864;BME280;65834;52.364;9.754;2023-12-14T10:31:15;101045.00;;;6.04;78.62
76864;BME280;65834;52.364;9.754;2023-12-14T10:33:45;101053.22;;;6.02;78.30
76864;BME280;65834;52.364;9.754;2023-12-14T10:36:17;101062.81;;;6.05;78.16
76864;BME280;65834;52.364;9.754;2023-12-14T10:38:51;101062.72;;;5.96;77.53
76864;BME280;65834;52.364;9.754;2023-12-14T10:41:24;101070.59;;;5.98;77.89
76864;BME280;65834;52.364;9.754;2023-12-14T10:43:56;101071.06;;;5.93;78.31
76864;BME280;65834;52.364;9.754;2023-12-14T10:46:48;101079.53;;;5.89;78.91
76864;BME280;65834;52.364;9.754;2023-12-14T10:49:18;101078.00;;;5.86;78.64
76864;BME280;65834;52.364;9.754;2023-12-14T10:51:48;101086.91;;;5.87;78.18
76864;BME280;65834;52.364;9.754;2023-12-14T10:54:18;101086.91;;;5.87;78.77
76864;BME280;65834;52.364;9.754;2023-12-14T10:56:54;101087.03;;;5.85;79.74
76864;BME280;65834;52.364;9.754;2023-12-14T10:59:25;101091.53;;;5.85;79.71
76864;BME280;65834;52.364;9.754;2023-12-14T11:01:55;101091.69;;;5.93;78.91
76864;BME280;65834;52.364;9.754;2023-12-14T11:04:26;101095.66;;;5.89;79.12
76864;BME280;65834;52.364;9.754;2023-12-14T11:06:58;101100.72;;;5.92;79.60
76864;BME280;65834;52.364;9.754;2023-12-14T11:09:30;101109.59;;;6.02;78.46
76864;BME280;65834;52.364;9.754;2023-12-14T11:12:03;101104.06;;;6.04;77.64
76864;BME280;65834;52.364;9.754;2023-12-14T11:14:32;101105.31;;;6.09;78.00
76864;BME280;65834;52.364;9.754;2023-12-14T11:17:06;101104.91;;;6.14;77.59
76864;BME280;65834;52.364;9.754;2023-12-14T11:19:36;101113.09;;;6.12;77.19
76864;BME280;65834;52.364;9.754;2023-12-14T11:22:10;101105.19;;;6.11;77.72
76864;BME280;65834;52.364;9.754;2023-12-14T11:24:54;101112.69;;;6.07;77.87
76864;BME280;65834;52.364;9.754;2023-12-14T11:27:30;101113.56;;;5.98;77.63
76864;BME280;65834;52.364;9.754;2023-12-14T11:30:02;101114.72;;;5.95;78.08
76864;BME280;65834;52.364;9.754;2023-12-14T11:32:32;101115.84;;;5.93;78.74
76864;BME280;65834;52.364;9.754;2023-12-14T11:35:01;101121.19;;;6.03;78.39
76864;BME280;65834;52.364;9.754;2023-12-14T11:37:31;101122.75;;;6.05;77.91
76864;BME280;65834;52.364;9.754;2023-12-14T11:40:03;101128.78;;;6.07;77.04
76864;BME280;65834;52.364;9.754;2023-12-14T11:42:36;101135.03;;;6.08;77.50
76864;BME280;65834;52.364;9.754;2023-12-14T11:45:07;101139.84;;;6.04;76.47
76864;BME280;65834;52.364;9.754;2023-12-14T11:47:36;101136.16;;;6.05;77.04
76864;BME280;65834;52.364;9.754;2023-12-14T11:50:07;101140.69;;;6.05;76.84
76864;BME280;65834;52.364;9.754;2023-12-14T11:52:38;101140.41;;;5.98;77.60
76864;BME280;65834;52.364;9.754;2023-12-14T11:55:10;101140.69;;;6.05;77.44
76864;BME280;65834;52.364;9.754;2023-12-14T11:57:49;101139.41;;;6.09;77.36
76864;BME280;65834;52.364;9.754;2023-12-14T12:00:23;101148.72;;;6.14;77.11
76864;BME280;65834;52.364;9.754;2023-12-14T12:03:07;101151.69;;;6.11;76.83
76864;BME280;65834;52.364;9.754;2023-12-14T12:05:37;101164.53;;;6.17;77.19
76864;BME280;65834;52.364;9.754;2023-12-14T12:08:08;101159.00;;;6.19;76.48
76864;BME280;65834;52.364;9.754;2023-12-14T12:10:39;101156.19;;;6.20;76.35
76864;BME280;65834;52.364;9.754;2023-12-14T12:13:14;101162.69;;;6.18;76.73
76864;BME280;65834;52.364;9.754;2023-12-14T12:15:44;101156.88;;;6.22;76.65
76864;BME280;65834;52.364;9.754;2023-12-14T12:18:15;101156.22;;;6.11;76.85
76864;BME280;65834;52.364;9.754;2023-12-14T12:20:46;101164.97;;;6.13;77.10
76864;BME280;65834;52.364;9.754;2023-12-14T12:23:15;101169.44;;;6.22;76.85
76864;BME280;65834;52.364;9.754;2023-12-14T12:25:45;101161.25;;;6.23;76.68
76864;BME280;65834;52.364;9.754;2023-12-14T12:28:17;101159.56;;;6.22;76.71
76864;BME280;65834;52.364;9.754;2023-12-14T12:30:47;101165.94;;;6.21;76.64
76864;BME280;65834;52.364;9.754;2023-12-14T12:33:16;101171.91;;;6.15;77.19
76864;BME280;65834;52.364;9.754;2023-12-14T12:35:47;101174.03;;;6.12;77.29
76864;BME280;65834;52.364;9.754;2023-12-14T12:38:16;101176.56;;;6.13;77.49
76864;BME280;65834;52.364;9.754;2023-12-14T12:40:46;101176.69;;;6.21;77.15
76864;BME280;65834;52.364;9.754;2023-12-14T12:43:18;101180.75;;;6.25;76.97
76864;BME280;65834;52.364;9.754;2023-12-14T12:45:48;101177.38;;;6.23;76.97
76864;BME280;65834;52.364;9.754;2023-12-14T12:48:17;101180.66;;;6.17;77.16
76864;BME280;65834;52.364;9.754;2023-12-14T12:50:52;101175.13;;;6.19;77.28
76864;BME280;65834;52.364;9.754;2023-12-14T12:53:21;101185.72;;;6.20;77.25
76864;BME280;65834;52.364;9.754;2023-12-14T12:55:51;101189.97;;;6.23;76.98
76864;BME280;65834;52.364;9.754;2023-12-14T12:58:23;101189.41;;;6.19;77.62
76864;BME280;65834;52.364;9.754;2023-12-14T13:00:53;101197.16;;;6.22;77.38
76864;BME280;65834;52.364;9.754;2023-12-14T13:03:24;101195.50;;;6.21;77.30
76864;BME280;65834;52.364;9.754;2023-12-14T13:05:53;101189.56;;;6.18;77.86
76864;BME280;65834;52.364;9.754;2023-12-14T13:08:23;101199.16;;;6.20;77.88
76864;BME280;65834;52.364;9.754;2023-12-14T13:10:53;101197.44;;;6.19;77.59
76864;BME280;65834;52.364;9.754;2023-12-14T13:13:25;101197.44;;;6.29;77.33
76864;BME280;65834;52.364;9.754;2023-12-14T13:15:54;101203.38;;;6.23;77.47
76864;BME280;65834;52.364;9.754;2023-12-14T13:18:24;101208.06;;;6.21;77.68